createdAt,value
2022-11-06T00:04:03.810Z,6
2022-11-06T00:09:04.392Z,6
2022-11-06T00:14:04.422Z,6
2022-11-06T00:19:05.022Z,5
2022-11-06T00:24:03.862Z,6
2022-11-06T00:29:03.848Z,6
2022-11-06T00:34:05.068Z,6
2022-11-06T00:39:04.491Z,7
2022-11-06T00:44:04.614Z,7
2022-11-06T00:49:04.464Z,6
2022-11-06T00:54:05.192Z,8
2022-11-06T00:59:05.133Z,15
2022-11-06T01:04:04.536Z,7
2022-11-06T01:09:03.924Z,7
2022-11-06T01:14:03.959Z,7
2022-11-06T01:19:04.410Z,7
2022-11-06T01:24:04.463Z,8
2022-11-06T01:29:04.420Z,8
2022-11-06T01:34:04.573Z,8
2022-11-06T01:39:04.452Z,9
2022-11-06T01:44:04.311Z,17
2022-11-06T01:49:04.445Z,28
2022-11-06T01:54:04.490Z,17
2022-11-06T01:59:04.474Z,34
2022-11-06T02:04:05.281Z,9
2022-11-06T02:09:05.226Z,8
2022-11-06T02:14:05.230Z,21
2022-11-06T02:19:04.603Z,16
2022-11-06T02:24:04.204Z,28
2022-11-06T02:29:05.333Z,17
2022-11-06T02:34:04.038Z,38
2022-11-06T02:39:06.505Z,21
2022-11-06T02:44:04.671Z,21
2022-11-06T02:49:04.680Z,21
2022-11-06T02:54:04.699Z,28
2022-11-06T02:59:04.765Z,27
2022-11-06T03:04:05.368Z,31
2022-11-06T03:09:04.759Z,28
2022-11-06T03:14:04.885Z,26
2022-11-06T03:19:04.154Z,30
2022-11-06T03:24:04.901Z,22
2022-11-06T03:29:04.750Z,22
2022-11-06T03:34:04.759Z,22
2022-11-06T03:39:04.740Z,15
2022-11-06T03:44:04.750Z,16
2022-11-06T03:49:04.183Z,21
2022-11-06T03:54:04.784Z,15
2022-11-06T03:59:04.810Z,14
2022-11-06T04:04:04.814Z,18
2022-11-06T04:09:04.699Z,23
2022-11-06T04:14:04.731Z,18
2022-11-06T04:19:04.809Z,16
2022-11-06T04:24:05.364Z,21
2022-11-06T04:29:04.763Z,29
2022-11-06T04:34:04.776Z,25
2022-11-06T04:39:05.365Z,13
2022-11-06T04:44:04.299Z,19
2022-11-06T04:49:04.286Z,36
2022-11-06T04:54:05.404Z,25
2022-11-06T04:59:04.454Z,16
2022-11-06T05:04:04.977Z,25
2022-11-06T05:09:04.358Z,21
2022-11-06T05:14:04.864Z,27
2022-11-06T05:19:05.443Z,20
2022-11-06T05:24:04.888Z,14
2022-11-06T05:29:04.846Z,22
2022-11-06T05:34:04.871Z,21
2022-11-06T05:39:04.920Z,15
2022-11-06T05:44:04.393Z,16
2022-11-06T05:49:05.066Z,21
2022-11-06T05:54:05.630Z,17
2022-11-06T05:59:05.134Z,15
2022-11-06T06:04:05.047Z,13
2022-11-06T06:09:05.648Z,14
2022-11-06T06:14:05.023Z,13
2022-11-06T06:19:05.655Z,26
2022-11-06T06:24:05.115Z,18
2022-11-06T06:29:05.052Z,17
2022-11-06T06:34:05.700Z,14
2022-11-06T06:39:04.514Z,19
2022-11-06T06:44:04.627Z,16
2022-11-06T06:49:05.133Z,34
2022-11-06T06:54:05.722Z,19
2022-11-06T06:59:04.530Z,13
2022-11-06T07:04:04.759Z,47
2022-11-06T07:09:05.167Z,30
2022-11-06T07:14:05.052Z,14
2022-11-06T07:19:05.056Z,43
2022-11-06T07:24:05.776Z,22
2022-11-06T07:29:05.112Z,14
2022-11-06T07:34:05.902Z,14
2022-11-06T07:39:05.068Z,24
2022-11-06T07:44:05.234Z,23
2022-11-06T07:49:04.613Z,32
2022-11-06T07:54:05.226Z,25
2022-11-06T07:59:05.852Z,19
2022-11-06T08:04:04.745Z,18
2022-11-06T08:09:04.653Z,20
2022-11-06T08:14:05.263Z,18
2022-11-06T08:19:04.653Z,12
2022-11-06T08:24:05.433Z,11
2022-11-06T08:29:05.194Z,14
2022-11-06T08:34:04.677Z,13
2022-11-06T08:39:05.353Z,14
2022-11-06T08:44:05.265Z,19
2022-11-06T08:49:05.361Z,13
2022-11-06T08:54:05.360Z,12
2022-11-06T08:59:05.311Z,12
2022-11-06T09:04:05.268Z,16
2022-11-06T09:09:08.346Z,12
2022-11-06T09:14:04.919Z,15
2022-11-06T09:19:05.659Z,13
2022-11-06T09:24:05.348Z,11
2022-11-06T09:29:04.759Z,11
2022-11-06T09:34:05.282Z,10
2022-11-06T09:39:05.428Z,11
2022-11-06T09:44:06.047Z,11
2022-11-06T09:49:05.321Z,10
2022-11-06T09:54:06.065Z,11
2022-11-06T09:59:05.365Z,11
2022-11-06T10:04:04.917Z,10
2022-11-06T10:09:06.116Z,9
2022-11-06T10:14:05.563Z,10
2022-11-06T10:19:05.357Z,10
2022-11-06T10:24:06.115Z,11
2022-11-06T10:29:06.261Z,12
2022-11-06T10:34:05.993Z,11
2022-11-06T10:39:04.911Z,10
2022-11-06T10:44:04.975Z,9
2022-11-06T10:49:04.929Z,10
2022-11-06T10:54:05.526Z,10
2022-11-06T10:59:04.958Z,8
2022-11-06T11:04:05.625Z,9
2022-11-06T11:09:05.606Z,9
2022-11-06T11:14:04.981Z,10
2022-11-06T11:19:05.643Z,10
2022-11-06T11:24:05.706Z,9
2022-11-06T11:29:06.077Z,9
2022-11-06T11:34:05.636Z,10
2022-11-06T11:39:06.105Z,10
2022-11-06T11:44:05.049Z,10
2022-11-06T11:49:05.071Z,10
2022-11-06T11:54:05.055Z,10
2022-11-06T11:59:06.136Z,11
2022-11-06T12:04:06.372Z,10
2022-11-06T12:09:06.180Z,11
2022-11-06T12:14:05.746Z,10
2022-11-06T12:19:05.610Z,11
2022-11-06T12:24:05.780Z,9
2022-11-06T12:29:05.541Z,10
2022-11-06T12:34:07.266Z,10
2022-11-06T12:39:05.771Z,9
2022-11-06T12:44:05.744Z,11
2022-11-06T12:49:05.169Z,10
2022-11-06T12:54:05.680Z,10
2022-11-06T12:59:05.146Z,10
2022-11-06T13:04:05.177Z,10
2022-11-06T13:09:06.260Z,11
2022-11-06T13:14:05.821Z,11
2022-11-06T13:19:06.304Z,11
2022-11-06T13:24:06.348Z,10
2022-11-06T13:29:05.805Z,11
2022-11-06T13:34:05.254Z,11
2022-11-06T13:39:05.731Z,12
2022-11-06T13:44:05.793Z,12
2022-11-06T13:49:05.274Z,13
2022-11-06T13:54:05.942Z,13
2022-11-06T13:59:07.594Z,14
2022-11-06T14:04:05.241Z,12
2022-11-06T14:09:05.265Z,12
2022-11-06T14:14:05.811Z,13
2022-11-06T14:19:05.947Z,14
2022-11-06T14:24:05.273Z,12
2022-11-06T14:29:06.490Z,11
2022-11-06T14:34:05.289Z,12
2022-11-06T14:39:05.866Z,13
2022-11-06T14:44:05.886Z,13
2022-11-06T14:49:05.890Z,12
2022-11-06T14:54:06.585Z,12
2022-11-06T14:59:06.625Z,14
2022-11-06T15:04:05.953Z,15
2022-11-06T15:09:05.387Z,14
2022-11-06T15:14:08.989Z,14
2022-11-06T15:19:05.996Z,15
2022-11-06T15:24:05.903Z,15
2022-11-06T15:29:06.011Z,14
2022-11-06T15:34:06.019Z,14
2022-11-06T15:39:06.205Z,14
2022-11-06T15:44:05.453Z,15
2022-11-06T15:49:06.075Z,14
2022-11-06T15:54:06.863Z,14
2022-11-06T15:59:06.201Z,14
2022-11-06T16:04:08.488Z,15
2022-11-06T16:09:06.109Z,14
2022-11-06T16:14:05.526Z,17
2022-11-06T16:19:06.729Z,18
2022-11-06T16:24:06.699Z,16
2022-11-06T16:29:05.600Z,13
2022-11-06T16:34:05.554Z,14
2022-11-06T16:39:06.248Z,13
2022-11-06T16:44:05.582Z,13
2022-11-06T16:49:06.212Z,14
2022-11-06T16:54:06.367Z,15
2022-11-06T16:59:06.829Z,14
2022-11-06T17:04:06.789Z,16
2022-11-06T17:09:09.265Z,16
2022-11-06T17:14:06.225Z,16
2022-11-06T17:19:06.886Z,15
2022-11-06T17:24:18.387Z,15
2022-11-06T17:29:08.029Z,15
2022-11-06T17:34:06.231Z,18
2022-11-06T17:39:06.396Z,18
2022-11-06T17:44:05.644Z,19
2022-11-06T17:49:06.301Z,21
2022-11-06T17:54:06.295Z,26
2022-11-06T17:59:06.227Z,20
2022-11-06T18:04:06.886Z,18
2022-11-06T18:09:06.323Z,18
2022-11-06T18:14:05.809Z,16
2022-11-06T18:19:06.303Z,18
2022-11-06T18:24:05.744Z,18
2022-11-06T18:29:06.316Z,22
2022-11-06T18:34:06.272Z,23
2022-11-06T18:39:07.040Z,22
2022-11-06T18:44:05.741Z,21
2022-11-06T18:49:05.741Z,22
2022-11-06T18:54:06.270Z,22
2022-11-06T18:59:06.520Z,22
2022-11-06T19:04:06.306Z,20
2022-11-06T19:09:06.302Z,19
2022-11-06T19:14:05.835Z,21
2022-11-06T19:19:07.409Z,19
2022-11-06T19:24:06.933Z,18
2022-11-06T19:29:06.942Z,19
2022-11-06T19:34:06.521Z,18
2022-11-06T19:39:06.380Z,17
2022-11-06T19:44:06.436Z,17
2022-11-06T19:49:05.900Z,17
2022-11-06T19:54:06.466Z,18
2022-11-06T19:59:06.508Z,18
2022-11-06T20:04:07.123Z,18
2022-11-06T20:09:06.554Z,18
2022-11-06T20:14:05.918Z,18
2022-11-06T20:19:06.497Z,17
2022-11-06T20:24:06.610Z,17
2022-11-06T20:29:07.070Z,15
2022-11-06T20:34:06.710Z,17
2022-11-06T20:39:07.084Z,18
2022-11-06T20:44:05.968Z,18
2022-11-06T20:49:07.239Z,16
2022-11-06T20:54:05.979Z,17
2022-11-06T20:59:06.632Z,17
2022-11-06T21:04:06.600Z,19
2022-11-06T21:09:06.562Z,18
2022-11-06T21:14:06.078Z,18
2022-11-06T21:19:06.604Z,18
2022-11-06T21:24:06.028Z,17
2022-11-06T21:29:06.593Z,17
2022-11-06T21:34:07.161Z,19
2022-11-06T21:39:08.414Z,18
2022-11-06T21:44:06.057Z,18
2022-11-06T21:49:06.071Z,19
2022-11-06T21:54:06.080Z,19
2022-11-06T21:59:07.248Z,18
2022-11-06T22:04:07.320Z,19
2022-11-06T22:09:06.804Z,19
2022-11-06T22:14:06.115Z,20
2022-11-06T22:19:06.134Z,19
2022-11-06T22:24:08.673Z,18
2022-11-06T22:29:06.137Z,19
2022-11-06T22:34:06.150Z,20
2022-11-06T22:39:06.813Z,19
2022-11-06T22:44:06.726Z,20
2022-11-06T22:49:06.198Z,19
2022-11-06T22:54:06.325Z,18
2022-11-06T22:59:06.823Z,19
2022-11-06T23:04:06.804Z,19
2022-11-06T23:09:06.835Z,19
2022-11-06T23:14:09.043Z,20
2022-11-06T23:19:06.875Z,19
2022-11-06T23:24:06.273Z,19
2022-11-06T23:29:06.280Z,19
2022-11-06T23:34:06.855Z,20
2022-11-06T23:39:06.488Z,20
2022-11-06T23:44:06.910Z,20
2022-11-06T23:49:06.313Z,20
2022-11-06T23:54:06.908Z,20
2022-11-06T23:59:06.928Z,20
